Terminal Aerodrome Forecast
Issued by NWS Lake Charles, LA

Home | Current Version | Previous Version | Text Only | Print | Product List | Glossary On
Versions: 1 2 3 4 5 6 7 8 9 10 11 12 13 14 15 16 17 18 19 20 21 22 23 24 25 26 27 28 29 30 31 32 33
000
FTUS44 KLCH 200520
TAFLCH
TAF
KLCH 200520Z 2006/2106 00000KT 6SM BR FEW007
      TEMPO 2006/2009 1/2SM FG VV007
     FM200900 00000KT 1/2SM FG VV002
     FM201400 09005KT 5SM BR SCT007 OVC012
     FM201600 12010KT P6SM SCT020 BKN040
     FM210000 VRB04KT P6SM FEW050=

USA.gov is the U.S. government's official web portal to all federal, state and local government web resources and services.